Shurdington, United Kingdom
Current Conditions -  °F | °C
As of 3:50 PM on Thursday 27 Nov 2014 (Local Time) from EGBJ Reporting Station
Few Clouds Few Clouds  
Wind Chill: 48°   Ceiling: Unl
Heat Index: 48°   Visibility: 6mi
Dew Point: 45°   Wind: 2mph
Humidity: 87%   Direction: 70°ENE
Pressure: 29.56"   Gusts: NA
Location:  51.86°N, 2.12°W
Report Text: EGBJ 271550Z 07002KT 9999 FEW018 09/07 Q1001
Loading
Personal Weather Stations






























Interactive Weather Map New forecast layout! Learn more

10-Day Weather Forecast

Advertisements
Track Severe Weather on mobile